createdAt,value
2023-03-23T00:00:18.972Z,53.17
2023-03-23T00:01:18.989Z,54.62
2023-03-23T00:02:18.970Z,53.50
2023-03-23T00:03:18.960Z,56.56
2023-03-23T00:04:18.940Z,55.27
2023-03-23T00:05:18.923Z,54.14
2023-03-23T00:06:18.929Z,53.17
2023-03-23T00:07:18.923Z,53.66
2023-03-23T00:08:18.900Z,52.85
2023-03-23T00:09:18.918Z,50.27
2023-03-23T00:10:18.895Z,52.05
2023-03-23T00:11:18.891Z,50.11
2023-03-23T00:12:18.875Z,53.33
2023-03-23T00:13:18.861Z,51.56
2023-03-23T00:14:18.887Z,55.75
2023-03-23T00:15:18.846Z,54.62
2023-03-23T00:16:18.844Z,55.75
2023-03-23T00:17:18.823Z,52.85
2023-03-23T00:18:18.816Z,48.82
2023-03-23T00:19:18.809Z,52.69
2023-03-23T00:20:18.830Z,52.53
2023-03-23T00:21:18.807Z,54.95
2023-03-23T00:22:18.793Z,52.37
2023-03-23T00:23:18.765Z,53.82
2023-03-23T00:24:18.784Z,50.11
2023-03-23T00:25:18.791Z,55.59
2023-03-23T00:26:18.794Z,52.53
2023-03-23T00:27:18.746Z,56.07
2023-03-23T00:28:18.749Z,50.43
2023-03-23T00:29:18.721Z,52.85
2023-03-23T00:30:18.739Z,52.37
2023-03-23T00:31:18.720Z,49.95
2023-03-23T00:32:18.722Z,50.60
2023-03-23T00:33:18.696Z,53.66
2023-03-23T00:34:18.691Z,54.14
2023-03-23T00:35:18.731Z,52.37
2023-03-23T00:36:18.697Z,54.79
2023-03-23T00:37:18.667Z,50.27
2023-03-23T00:38:18.669Z,50.27
2023-03-23T00:39:18.647Z,50.60
2023-03-23T00:40:18.664Z,55.91
2023-03-23T00:41:18.647Z,52.85
2023-03-23T00:42:18.624Z,54.46
2023-03-23T00:43:18.613Z,56.56
2023-03-23T00:44:18.610Z,53.98
2023-03-23T00:45:18.638Z,53.82
2023-03-23T00:46:18.607Z,54.30
2023-03-23T00:47:18.581Z,54.30
2023-03-23T00:48:18.567Z,53.17
2023-03-23T00:49:18.608Z,54.79
2023-03-23T00:50:22.237Z,53.98
2023-03-23T00:51:18.550Z,53.33
2023-03-23T00:52:18.546Z,52.69
2023-03-23T00:53:18.530Z,50.60
2023-03-23T00:54:18.522Z,50.11
2023-03-23T00:55:18.541Z,51.56
2023-03-23T00:56:18.513Z,54.46
2023-03-23T00:57:18.498Z,50.43
2023-03-23T00:58:18.499Z,56.24
2023-03-23T00:59:18.486Z,52.05
2023-03-23T01:00:18.494Z,53.17
2023-03-23T01:01:18.467Z,54.14
2023-03-23T01:02:18.455Z,53.66
2023-03-23T01:03:18.464Z,52.37
2023-03-23T01:04:18.442Z,53.98
2023-03-23T01:05:18.433Z,52.05
2023-03-23T01:06:18.430Z,55.59
2023-03-23T01:07:18.414Z,52.69
2023-03-23T01:08:18.426Z,52.69
2023-03-23T01:09:18.401Z,51.88
2023-03-23T01:10:18.391Z,51.40
2023-03-23T01:11:18.400Z,50.11
2023-03-23T01:12:18.376Z,58.01
2023-03-23T01:13:18.370Z,48.82
2023-03-23T01:14:18.361Z,48.34
2023-03-23T01:15:18.346Z,50.11
2023-03-23T01:16:18.347Z,52.05
2023-03-23T01:17:18.364Z,52.21
2023-03-23T01:18:18.335Z,53.01
2023-03-23T01:19:19.326Z,48.34
2023-03-23T01:20:18.319Z,47.70
2023-03-23T01:21:18.307Z,52.05
2023-03-23T01:22:18.307Z,53.17
2023-03-23T01:23:18.306Z,52.69
2023-03-23T01:24:18.284Z,51.88
2023-03-23T01:25:18.304Z,53.33
2023-03-23T01:26:18.275Z,52.85
2023-03-23T01:27:18.258Z,53.17
2023-03-23T01:28:18.258Z,52.85
2023-03-23T01:29:18.254Z,52.21
2023-03-23T01:30:18.240Z,53.50
2023-03-23T01:31:18.303Z,49.95
2023-03-23T01:32:18.234Z,51.56
2023-03-23T01:33:18.217Z,50.92
2023-03-23T01:34:18.205Z,50.60
2023-03-23T01:35:18.213Z,52.53
2023-03-23T01:36:18.199Z,52.37
2023-03-23T01:37:18.205Z,53.82
2023-03-23T01:38:18.189Z,53.98
2023-03-23T01:39:18.174Z,49.63
2023-03-23T01:40:18.167Z,51.56
2023-03-23T01:41:18.159Z,53.33
2023-03-23T01:42:18.177Z,54.14
2023-03-23T01:43:18.134Z,49.79
2023-03-23T01:44:18.157Z,51.88
2023-03-23T01:45:18.130Z,53.33
2023-03-23T01:46:18.122Z,52.69
2023-03-23T01:47:18.111Z,51.40
2023-03-23T01:48:18.129Z,52.69
2023-03-23T01:49:18.119Z,49.47
2023-03-23T01:50:18.093Z,50.76
2023-03-23T01:51:18.090Z,53.98
2023-03-23T01:52:18.085Z,54.62
2023-03-23T01:53:18.074Z,51.40
2023-03-23T01:54:18.077Z,52.05
2023-03-23T01:55:18.086Z,52.69
2023-03-23T01:56:18.047Z,53.50
2023-03-23T01:57:18.048Z,53.82
2023-03-23T01:58:18.072Z,53.66
2023-03-23T01:59:18.024Z,54.95
2023-03-23T02:00:18.014Z,54.95
2023-03-23T02:01:18.032Z,50.76
2023-03-23T02:02:17.997Z,48.50
2023-03-23T02:03:17.989Z,54.62
2023-03-23T02:04:17.980Z,53.50
2023-03-23T02:05:17.981Z,53.98
2023-03-23T02:06:17.992Z,54.95
2023-03-23T02:07:17.958Z,50.43
2023-03-23T02:08:17.951Z,50.76
2023-03-23T02:09:17.946Z,56.07
2023-03-23T02:10:17.946Z,52.05
2023-03-23T02:11:22.018Z,52.37
2023-03-23T02:12:17.934Z,54.79
2023-03-23T02:13:17.909Z,51.88
2023-03-23T02:14:17.902Z,54.14
2023-03-23T02:15:17.894Z,53.66
2023-03-23T02:16:17.910Z,52.05
2023-03-23T02:17:17.874Z,53.17
2023-03-23T02:18:17.873Z,54.30
2023-03-23T02:19:17.864Z,52.21
2023-03-23T02:20:17.861Z,52.85
2023-03-23T02:21:17.852Z,55.43
2023-03-23T02:22:17.865Z,52.21
2023-03-23T02:23:17.829Z,52.05
2023-03-23T02:24:17.846Z,51.56
2023-03-23T02:25:17.828Z,54.14
2023-03-23T02:26:17.810Z,53.82
2023-03-23T02:27:17.796Z,50.43
2023-03-23T02:28:17.807Z,52.53
2023-03-23T02:29:17.805Z,53.01
2023-03-23T02:30:17.774Z,54.46
2023-03-23T02:31:17.767Z,52.21
2023-03-23T02:32:17.767Z,53.50
2023-03-23T02:33:17.760Z,52.05
2023-03-23T02:34:17.745Z,52.21
2023-03-23T02:35:17.773Z,50.27
2023-03-23T02:36:17.752Z,50.11
2023-03-23T02:37:17.718Z,52.05
2023-03-23T02:38:17.720Z,54.30
2023-03-23T02:39:17.704Z,54.30
2023-03-23T02:40:17.702Z,54.46
2023-03-23T02:41:17.677Z,52.85
2023-03-23T02:42:17.740Z,51.24
2023-03-23T02:43:17.669Z,52.05
2023-03-23T02:44:17.661Z,56.56
2023-03-23T02:45:17.656Z,55.91
2023-03-23T02:46:17.644Z,53.82
2023-03-23T02:47:17.643Z,52.37
2023-03-23T02:48:17.652Z,54.14
2023-03-23T02:49:17.623Z,50.60
2023-03-23T02:50:17.614Z,54.62
2023-03-23T02:51:17.604Z,53.01
2023-03-23T02:52:17.612Z,54.62
2023-03-23T02:53:17.624Z,53.50
2023-03-23T02:54:17.592Z,51.56
2023-03-23T02:55:17.588Z,54.46
2023-03-23T02:56:17.576Z,54.95
2023-03-23T02:57:17.578Z,51.24
2023-03-23T02:58:17.577Z,52.21
2023-03-23T02:59:17.552Z,51.24
2023-03-23T03:00:17.561Z,50.11
2023-03-23T03:01:17.543Z,50.11
2023-03-23T03:02:17.530Z,53.82
2023-03-23T03:03:17.521Z,53.01
2023-03-23T03:04:17.535Z,49.95
2023-03-23T03:05:17.519Z,50.76
2023-03-23T03:06:17.511Z,53.50
2023-03-23T03:07:17.514Z,50.11
2023-03-23T03:08:17.480Z,56.07
2023-03-23T03:09:17.465Z,56.07
2023-03-23T03:10:17.547Z,54.14
2023-03-23T03:11:17.466Z,53.82
2023-03-23T03:12:17.444Z,52.53
2023-03-23T03:13:17.449Z,55.91
2023-03-23T03:14:17.442Z,57.52
2023-03-23T03:15:17.417Z,53.50
2023-03-23T03:16:17.436Z,52.37
2023-03-23T03:17:17.425Z,52.53
2023-03-23T03:18:17.431Z,56.07
2023-03-23T03:19:18.330Z,56.56
2023-03-23T03:20:17.386Z,55.27
2023-03-23T03:21:17.387Z,55.11
2023-03-23T03:22:17.384Z,54.30
2023-03-23T03:23:17.359Z,54.30
2023-03-23T03:24:17.377Z,53.33
2023-03-23T03:25:18.619Z,51.56
2023-03-23T03:26:17.345Z,54.46
2023-03-23T03:27:17.331Z,54.62
2023-03-23T03:28:17.329Z,56.07
2023-03-23T03:29:17.346Z,57.69
2023-03-23T03:30:17.321Z,54.30
2023-03-23T03:31:17.303Z,55.59
2023-03-23T03:32:17.300Z,54.95
2023-03-23T03:33:17.313Z,56.56
2023-03-23T03:34:17.306Z,55.59
2023-03-23T03:35:17.307Z,54.79
2023-03-23T03:36:17.296Z,52.05
2023-03-23T03:37:17.256Z,53.98
2023-03-23T03:38:17.246Z,55.59
2023-03-23T03:39:17.243Z,54.79
2023-03-23T03:40:17.243Z,55.75
2023-03-23T03:41:17.250Z,54.79
2023-03-23T03:42:17.222Z,54.62
2023-03-23T03:43:17.243Z,54.79
2023-03-23T03:44:17.251Z,54.30
2023-03-23T03:45:17.203Z,55.27
2023-03-23T03:46:17.190Z,56.24
2023-03-23T03:47:17.189Z,55.11
2023-03-23T03:48:17.184Z,56.24
2023-03-23T03:49:17.202Z,55.59
2023-03-23T03:50:17.163Z,56.07
2023-03-23T03:51:17.152Z,57.69
2023-03-23T03:52:17.142Z,56.07
2023-03-23T03:53:17.151Z,58.81
2023-03-23T03:54:18.135Z,57.04
2023-03-23T03:55:17.132Z,57.36
2023-03-23T03:56:17.107Z,57.20
2023-03-23T03:57:17.098Z,53.82
2023-03-23T03:58:17.119Z,57.69
2023-03-23T03:59:21.640Z,56.07
2023-03-23T04:00:18.074Z,57.85
2023-03-23T04:01:17.068Z,59.62
2023-03-23T04:02:17.088Z,57.20
2023-03-23T04:03:17.051Z,58.65
2023-03-23T04:04:17.039Z,58.65
2023-03-23T04:05:17.044Z,56.88
2023-03-23T04:06:17.027Z,56.24
2023-03-23T04:07:17.011Z,56.56
2023-03-23T04:08:17.042Z,57.20
2023-03-23T04:09:17.004Z,59.46
2023-03-23T04:10:16.987Z,58.49
2023-03-23T04:11:32.629Z,60.26
2023-03-23T04:12:16.972Z,58.17
2023-03-23T04:13:16.973Z,59.14
2023-03-23T04:14:16.983Z,57.69
2023-03-23T04:15:16.987Z,58.65
2023-03-23T04:16:16.946Z,58.81
2023-03-23T04:17:16.935Z,60.10
2023-03-23T04:18:16.925Z,58.33
2023-03-23T04:19:16.939Z,57.36
2023-03-23T04:20:16.914Z,57.36
2023-03-23T04:21:17.902Z,57.85
2023-03-23T04:22:16.900Z,57.20
2023-03-23T04:23:16.899Z,58.33
2023-03-23T04:24:23.371Z,58.17
2023-03-23T04:25:17.892Z,60.10
2023-03-23T04:26:16.864Z,61.55
2023-03-23T04:27:16.851Z,59.46
2023-03-23T04:28:16.880Z,60.26
2023-03-23T04:29:16.835Z,59.30
2023-03-23T04:30:16.836Z,55.27
2023-03-23T04:31:16.836Z,56.24
2023-03-23T04:32:16.820Z,57.36
2023-03-23T04:33:16.811Z,58.33
2023-03-23T04:34:17.820Z,60.10
2023-03-23T04:35:16.785Z,59.46
2023-03-23T04:36:16.815Z,59.46
2023-03-23T04:37:16.802Z,57.04
2023-03-23T04:38:16.764Z,56.07
2023-03-23T04:39:16.756Z,58.33
2023-03-23T04:40:16.754Z,58.65
2023-03-23T04:41:16.738Z,60.59
2023-03-23T04:42:16.735Z,60.10
2023-03-23T04:43:16.744Z,58.65
2023-03-23T04:44:16.713Z,59.78
2023-03-23T04:45:16.712Z,59.78
2023-03-23T04:46:16.701Z,58.65
2023-03-23T04:47:16.704Z,60.75
2023-03-23T04:48:16.693Z,60.91
2023-03-23T04:49:16.672Z,59.46
2023-03-23T04:50:16.699Z,59.46
2023-03-23T04:51:16.674Z,60.59
2023-03-23T04:52:16.658Z,59.14
2023-03-23T04:53:16.639Z,58.49
2023-03-23T04:54:16.640Z,61.87
2023-03-23T04:55:16.619Z,59.94
2023-03-23T04:56:16.632Z,59.46
2023-03-23T04:57:16.605Z,58.81
2023-03-23T04:58:16.602Z,57.69
2023-03-23T04:59:16.586Z,59.78
2023-03-23T05:00:16.581Z,59.30
2023-03-23T05:01:16.583Z,60.75
2023-03-23T05:02:16.590Z,62.68
2023-03-23T05:03:16.566Z,59.94
2023-03-23T05:04:16.557Z,59.62
2023-03-23T05:05:16.537Z,59.62
2023-03-23T05:06:16.534Z,61.87
2023-03-23T05:07:16.526Z,59.30
2023-03-23T05:08:16.529Z,59.46
2023-03-23T05:09:16.502Z,59.14
2023-03-23T05:10:16.503Z,59.62
2023-03-23T05:11:17.489Z,60.42
2023-03-23T05:12:16.484Z,60.26
2023-03-23T05:13:16.489Z,60.59
2023-03-23T05:14:16.470Z,61.55
2023-03-23T05:15:16.455Z,60.91
2023-03-23T05:16:16.462Z,60.59
2023-03-23T05:17:16.429Z,62.68
2023-03-23T05:18:16.420Z,58.65
2023-03-23T05:19:16.436Z,59.94
2023-03-23T05:20:16.424Z,59.30
2023-03-23T05:21:16.408Z,60.26
2023-03-23T05:22:16.406Z,60.42
2023-03-23T05:23:16.394Z,62.20
2023-03-23T05:24:16.385Z,61.87
2023-03-23T05:25:16.395Z,60.10
2023-03-23T05:26:16.372Z,60.75
2023-03-23T05:27:16.368Z,60.10
2023-03-23T05:28:16.374Z,59.46
2023-03-23T05:29:16.350Z,59.46
2023-03-23T05:30:16.379Z,60.59
2023-03-23T05:31:16.356Z,61.07
2023-03-23T05:32:16.345Z,60.75
2023-03-23T05:33:16.318Z,62.52
2023-03-23T05:34:16.315Z,61.39
2023-03-23T05:35:16.309Z,60.59
2023-03-23T05:36:16.328Z,59.94
2023-03-23T05:37:16.291Z,60.59
2023-03-23T05:38:16.281Z,63.00
2023-03-23T05:39:16.272Z,62.36
2023-03-23T05:40:16.269Z,63.33
2023-03-23T05:41:16.910Z,61.55
2023-03-23T05:42:16.274Z,59.62
2023-03-23T05:43:16.237Z,61.55
2023-03-23T05:44:16.251Z,61.71
2023-03-23T05:45:16.229Z,60.42
2023-03-23T05:46:16.233Z,60.26
2023-03-23T05:47:16.246Z,62.20
2023-03-23T05:48:16.204Z,61.55
2023-03-23T05:49:16.199Z,61.07
2023-03-23T05:50:16.209Z,63.49
2023-03-23T05:51:16.168Z,61.55
2023-03-23T05:52:16.192Z,62.20
2023-03-23T05:53:16.168Z,61.39
2023-03-23T05:54:16.172Z,62.52
2023-03-23T05:55:16.144Z,60.26
2023-03-23T05:56:16.139Z,58.49
2023-03-23T05:57:16.135Z,61.23
2023-03-23T05:58:16.131Z,61.55
2023-03-23T05:59:16.116Z,63.49
2023-03-23T06:00:16.135Z,60.75
2023-03-23T06:01:16.095Z,60.59
2023-03-23T06:02:16.096Z,61.39
2023-03-23T06:03:16.089Z,61.39
2023-03-23T06:04:16.081Z,61.07
2023-03-23T06:05:16.069Z,61.71
2023-03-23T06:06:16.086Z,62.36
2023-03-23T06:07:16.063Z,61.55
2023-03-23T06:08:16.047Z,59.46
2023-03-23T06:09:16.033Z,60.59
2023-03-23T06:10:16.066Z,63.49
2023-03-23T06:11:16.024Z,61.87
2023-03-23T06:12:16.017Z,63.49
2023-03-23T06:13:16.006Z,61.71
2023-03-23T06:14:16.003Z,62.84
2023-03-23T06:15:16.038Z,61.07
2023-03-23T06:16:15.993Z,61.07
2023-03-23T06:17:15.983Z,61.39
2023-03-23T06:18:15.977Z,62.20
2023-03-23T06:19:15.969Z,61.39
2023-03-23T06:20:15.962Z,60.59
2023-03-23T06:21:18.557Z,60.75
2023-03-23T06:22:15.952Z,62.52
2023-03-23T06:23:15.938Z,61.07
2023-03-23T06:24:15.951Z,62.84
2023-03-23T06:25:15.922Z,62.68
2023-03-23T06:26:15.926Z,60.59
2023-03-23T06:27:17.093Z,60.59
2023-03-23T06:28:15.913Z,61.71
2023-03-23T06:29:15.890Z,61.55
2023-03-23T06:30:15.894Z,62.04
2023-03-23T06:31:15.888Z,59.78
2023-03-23T06:32:15.879Z,61.55
2023-03-23T06:33:15.883Z,61.39
2023-03-23T06:34:15.863Z,62.36
2023-03-23T06:35:15.857Z,60.75
2023-03-23T06:36:15.958Z,62.84
2023-03-23T06:37:15.858Z,62.04
2023-03-23T06:38:15.833Z,61.39
2023-03-23T06:39:15.824Z,61.55
2023-03-23T06:40:15.843Z,60.10
2023-03-23T06:41:15.809Z,63.33
2023-03-23T06:42:15.804Z,64.13
2023-03-23T06:43:15.798Z,60.75
2023-03-23T06:44:15.799Z,62.84
2023-03-23T06:45:15.801Z,63.16
2023-03-23T06:46:15.784Z,63.00
2023-03-23T06:47:15.765Z,63.33
2023-03-23T06:48:15.762Z,64.13
2023-03-23T06:49:15.755Z,61.71
2023-03-23T06:50:15.758Z,63.49
2023-03-23T06:51:15.736Z,61.23
2023-03-23T06:52:15.753Z,63.81
2023-03-23T06:53:15.717Z,62.68
2023-03-23T06:54:15.738Z,61.71
2023-03-23T06:55:15.708Z,62.68
2023-03-23T06:56:15.700Z,63.33
2023-03-23T06:57:15.717Z,61.39
2023-03-23T06:58:15.712Z,58.97
2023-03-23T06:59:15.697Z,59.78
2023-03-23T07:00:15.678Z,60.91
2023-03-23T07:01:15.684Z,59.46
2023-03-23T07:02:15.674Z,60.26
2023-03-23T07:03:15.640Z,60.91
2023-03-23T07:04:15.661Z,61.39
2023-03-23T07:05:15.635Z,58.97
2023-03-23T07:06:15.640Z,60.91
2023-03-23T07:07:15.620Z,60.59
2023-03-23T07:08:15.622Z,60.26
2023-03-23T07:09:15.625Z,60.59
2023-03-23T07:10:15.613Z,61.71
2023-03-23T07:11:15.592Z,61.39
2023-03-23T07:12:15.591Z,63.49
2023-03-23T07:13:15.585Z,58.49
2023-03-23T07:14:15.612Z,60.10
2023-03-23T07:15:15.549Z,59.94
2023-03-23T07:16:15.554Z,59.62
2023-03-23T07:17:15.558Z,60.91
2023-03-23T07:18:15.555Z,60.59
2023-03-23T07:19:15.531Z,60.59
2023-03-23T07:20:15.555Z,61.23
2023-03-23T07:21:15.514Z,60.10
2023-03-23T07:22:15.509Z,60.10
2023-03-23T07:23:15.505Z,61.07
2023-03-23T07:24:15.507Z,62.20
2023-03-23T07:25:15.491Z,63.81
2023-03-23T07:26:15.498Z,59.14
2023-03-23T07:27:15.472Z,60.42
2023-03-23T07:28:15.468Z,62.20
2023-03-23T07:29:15.454Z,63.33
2023-03-23T07:30:15.453Z,59.62
2023-03-23T07:31:15.457Z,62.20
2023-03-23T07:32:15.451Z,59.46
2023-03-23T07:33:15.453Z,60.59
2023-03-23T07:34:15.423Z,59.78
2023-03-23T07:35:15.410Z,60.75
2023-03-23T07:36:15.463Z,59.30
2023-03-23T07:37:15.394Z,61.39
2023-03-23T07:38:15.409Z,63.97
2023-03-23T07:39:15.575Z,62.04
2023-03-23T07:40:15.376Z,62.68
2023-03-23T07:41:15.444Z,63.33
2023-03-23T07:42:15.353Z,59.62
2023-03-23T07:43:15.346Z,62.68
2023-03-23T07:44:15.363Z,60.59
2023-03-23T07:45:15.337Z,60.10
2023-03-23T07:46:15.341Z,60.59
2023-03-23T07:47:15.319Z,57.52
2023-03-23T07:48:21.077Z,58.17
2023-03-23T07:49:16.293Z,60.42
2023-03-23T07:50:15.290Z,60.42
2023-03-23T07:51:15.298Z,58.65
2023-03-23T07:52:15.315Z,58.65
2023-03-23T07:53:15.255Z,60.10
2023-03-23T07:54:15.251Z,60.59
2023-03-23T07:55:15.245Z,60.26
2023-03-23T07:56:15.251Z,59.62
2023-03-23T07:57:15.244Z,59.78
2023-03-23T07:58:15.277Z,60.59
2023-03-23T07:59:15.218Z,60.10
2023-03-23T08:00:15.205Z,60.26
2023-03-23T08:01:15.220Z,58.17
2023-03-23T08:02:15.209Z,60.26
2023-03-23T08:03:15.216Z,62.52
2023-03-23T08:04:15.182Z,61.23
2023-03-23T08:05:15.168Z,61.23
2023-03-23T08:06:15.168Z,59.78
2023-03-23T08:07:15.147Z,61.71
2023-03-23T08:08:15.149Z,62.52
2023-03-23T08:09:15.161Z,61.55
2023-03-23T08:10:15.135Z,64.29
2023-03-23T08:11:15.144Z,63.16
2023-03-23T08:12:15.128Z,60.42
2023-03-23T08:13:15.148Z,62.20
2023-03-23T08:14:18.743Z,63.81
2023-03-23T08:15:16.094Z,63.00
2023-03-23T08:16:15.292Z,61.71
2023-03-23T08:17:15.092Z,59.94
2023-03-23T08:18:15.065Z,59.30
2023-03-23T08:19:15.049Z,61.07
2023-03-23T08:20:15.058Z,62.04
2023-03-23T08:21:15.103Z,61.39
2023-03-23T08:22:15.024Z,61.39
2023-03-23T08:23:15.016Z,61.07
2023-03-23T08:24:15.025Z,62.84
2023-03-23T08:25:14.989Z,62.68
2023-03-23T08:26:14.989Z,60.75
2023-03-23T08:27:14.987Z,61.87
2023-03-23T08:28:15.004Z,59.30
2023-03-23T08:29:14.975Z,61.23
2023-03-23T08:30:14.960Z,63.81
2023-03-23T08:31:14.948Z,61.55
2023-03-23T08:32:14.950Z,63.00
2023-03-23T08:33:14.966Z,59.94
2023-03-23T08:34:14.935Z,64.29
2023-03-23T08:35:14.934Z,59.46
2023-03-23T08:36:15.010Z,60.75
2023-03-23T08:37:14.926Z,61.39
2023-03-23T08:38:14.920Z,63.00
2023-03-23T08:39:14.907Z,62.36
2023-03-23T08:40:16.464Z,61.23
2023-03-23T08:41:14.897Z,58.65
2023-03-23T08:42:14.906Z,59.62
2023-03-23T08:43:14.867Z,58.81
2023-03-23T08:44:14.883Z,59.78
2023-03-23T08:45:14.864Z,62.36
2023-03-23T08:46:14.864Z,63.00
2023-03-23T08:47:14.858Z,59.94
2023-03-23T08:48:14.842Z,61.71
2023-03-23T08:49:14.823Z,60.10
2023-03-23T08:50:14.824Z,60.91
2023-03-23T08:51:14.809Z,62.04
2023-03-23T08:52:14.843Z,61.55
2023-03-23T08:53:14.796Z,59.46
2023-03-23T08:54:14.811Z,61.55
2023-03-23T08:55:14.785Z,60.91
2023-03-23T08:56:14.793Z,59.78
2023-03-23T08:57:14.784Z,60.75
2023-03-23T08:58:14.760Z,62.20
2023-03-23T08:59:14.777Z,62.04
2023-03-23T09:00:14.747Z,61.71
2023-03-23T09:01:14.738Z,61.55
2023-03-23T09:02:14.737Z,61.23
2023-03-23T09:03:14.725Z,61.55
2023-03-23T09:04:14.737Z,61.87
2023-03-23T09:05:14.735Z,62.52
2023-03-23T09:06:14.709Z,59.94
2023-03-23T09:07:14.691Z,59.78
2023-03-23T09:08:14.699Z,60.59
2023-03-23T09:09:14.686Z,64.13
2023-03-23T09:10:14.673Z,63.00
2023-03-23T09:11:14.658Z,60.26
2023-03-23T09:12:14.641Z,59.62
2023-03-23T09:13:14.641Z,60.91
2023-03-23T09:14:14.647Z,59.14
2023-03-23T09:15:16.629Z,59.94
2023-03-23T09:16:14.639Z,61.55
2023-03-23T09:17:14.610Z,62.04
2023-03-23T09:18:14.628Z,61.71
2023-03-23T09:19:14.602Z,60.59
2023-03-23T09:20:14.589Z,64.13
2023-03-23T09:21:18.745Z,64.61
2023-03-23T09:22:14.580Z,60.42
2023-03-23T09:23:14.582Z,59.30
2023-03-23T09:24:14.571Z,58.33
2023-03-23T09:25:14.541Z,61.23
2023-03-23T09:26:14.581Z,61.23
2023-03-23T09:27:14.556Z,63.33
2023-03-23T09:28:14.522Z,63.33
2023-03-23T09:29:14.533Z,61.71
2023-03-23T09:30:14.514Z,62.20
2023-03-23T09:31:14.500Z,59.30
2023-03-23T09:32:14.490Z,58.81
2023-03-23T09:33:14.487Z,59.14
2023-03-23T09:34:14.485Z,64.29
2023-03-23T09:35:14.498Z,61.23
2023-03-23T09:36:14.528Z,62.84
2023-03-23T09:37:14.455Z,62.04
2023-03-23T09:38:14.453Z,61.23
2023-03-23T09:39:14.443Z,62.84
2023-03-23T09:40:14.459Z,60.42
2023-03-23T09:41:14.420Z,60.75
2023-03-23T09:42:14.428Z,60.10
2023-03-23T09:43:14.408Z,61.87
2023-03-23T09:44:14.411Z,60.59
2023-03-23T09:45:14.392Z,63.00
2023-03-23T09:46:14.404Z,60.26
2023-03-23T09:47:14.373Z,60.91
2023-03-23T09:48:14.397Z,63.00
2023-03-23T09:49:14.373Z,62.36
2023-03-23T09:50:14.365Z,62.36
2023-03-23T09:51:14.351Z,60.59
2023-03-23T09:52:14.341Z,60.59
2023-03-23T09:53:14.364Z,62.36
2023-03-23T09:54:14.330Z,61.55
2023-03-23T09:55:14.316Z,61.23
2023-03-23T09:56:14.302Z,62.52
2023-03-23T09:57:14.309Z,62.68
2023-03-23T09:58:14.296Z,60.59
2023-03-23T09:59:14.300Z,60.26
2023-03-23T10:00:14.276Z,63.00
2023-03-23T10:01:14.274Z,61.23
2023-03-23T10:02:14.252Z,61.39
2023-03-23T10:03:14.275Z,61.23
2023-03-23T10:04:14.252Z,62.20
2023-03-23T10:05:14.255Z,58.81
2023-03-23T10:06:14.243Z,59.46
2023-03-23T10:07:14.216Z,60.75
2023-03-23T10:08:14.206Z,62.84
2023-03-23T10:09:14.223Z,60.59
2023-03-23T10:10:14.202Z,60.59
2023-03-23T10:11:14.176Z,61.23
2023-03-23T10:12:14.195Z,60.10
2023-03-23T10:13:14.168Z,59.62
2023-03-23T10:14:14.161Z,60.26
2023-03-23T10:15:14.165Z,62.20
2023-03-23T10:16:14.151Z,63.00
2023-03-23T10:17:14.142Z,61.87
2023-03-23T10:18:14.159Z,60.59
2023-03-23T10:19:14.138Z,60.75
2023-03-23T10:20:14.110Z,59.46
2023-03-23T10:21:14.099Z,61.71
2023-03-23T10:22:14.115Z,60.59
2023-03-23T10:23:14.083Z,60.10
2023-03-23T10:24:14.080Z,62.20
2023-03-23T10:25:14.061Z,61.39
2023-03-23T10:26:14.087Z,58.49
2023-03-23T10:27:14.052Z,61.71
2023-03-23T10:28:14.065Z,61.07
2023-03-23T10:29:14.055Z,60.91
2023-03-23T10:30:14.062Z,60.91
2023-03-23T10:31:14.021Z,61.07
2023-03-23T10:32:14.025Z,61.71
2023-03-23T10:33:14.006Z,60.59
2023-03-23T10:34:14.017Z,60.91
2023-03-23T10:35:13.989Z,60.10
2023-03-23T10:36:14.040Z,61.55
2023-03-23T10:37:13.985Z,61.71
2023-03-23T10:38:13.982Z,61.39
2023-03-23T10:39:13.953Z,60.10
2023-03-23T10:40:13.966Z,61.23
2023-03-23T10:41:14.941Z,61.39
2023-03-23T10:42:13.938Z,58.81
2023-03-23T10:43:13.948Z,60.10
2023-03-23T10:44:13.919Z,60.91
2023-03-23T10:45:13.928Z,62.36
2023-03-23T10:46:22.928Z,61.39
2023-03-23T10:47:13.888Z,58.49
2023-03-23T10:48:13.900Z,60.10
2023-03-23T10:49:13.872Z,59.46
2023-03-23T10:50:13.871Z,60.10
2023-03-23T10:51:13.902Z,61.87
2023-03-23T10:52:13.863Z,61.87
2023-03-23T10:53:13.845Z,61.07
2023-03-23T10:54:13.848Z,59.78
2023-03-23T10:55:13.844Z,59.94
2023-03-23T10:56:13.814Z,60.91
2023-03-23T10:57:13.805Z,60.42
2023-03-23T10:58:13.800Z,59.94
2023-03-23T10:59:13.803Z,59.46
2023-03-23T11:00:13.782Z,60.26
2023-03-23T11:01:13.810Z,61.23
2023-03-23T11:02:21.038Z,61.87
2023-03-23T11:03:14.765Z,60.91
2023-03-23T11:04:13.749Z,61.71
2023-03-23T11:05:19.972Z,63.81
2023-03-23T11:06:14.754Z,59.46
2023-03-23T11:07:13.764Z,60.26
2023-03-23T11:08:13.733Z,63.33
2023-03-23T11:09:13.723Z,60.59
2023-03-23T11:10:13.702Z,60.10
2023-03-23T11:11:13.685Z,59.46
2023-03-23T11:12:13.701Z,60.59
2023-03-23T11:13:13.679Z,61.55
2023-03-23T11:14:13.668Z,62.52
2023-03-23T11:15:13.673Z,61.55
2023-03-23T11:16:13.681Z,62.20
2023-03-23T11:17:15.852Z,61.23
2023-03-23T11:18:13.621Z,60.59
2023-03-23T11:19:13.623Z,61.87
2023-03-23T11:20:13.616Z,59.62
2023-03-23T11:21:13.603Z,61.23
2023-03-23T11:22:13.618Z,61.71
2023-03-23T11:23:13.583Z,60.42
2023-03-23T11:24:13.584Z,59.78
2023-03-23T11:25:14.444Z,61.23
2023-03-23T11:26:13.560Z,60.26
2023-03-23T11:27:13.560Z,59.14
2023-03-23T11:28:13.565Z,59.62
2023-03-23T11:29:13.540Z,59.94
2023-03-23T11:30:13.524Z,58.81
2023-03-23T11:31:13.541Z,58.01
2023-03-23T11:32:13.520Z,60.59
2023-03-23T11:33:13.532Z,58.97
2023-03-23T11:34:13.495Z,57.20
2023-03-23T11:35:16.380Z,58.65
2023-03-23T11:36:13.518Z,58.33
2023-03-23T11:37:13.497Z,59.30
2023-03-23T11:38:13.462Z,60.26
2023-03-23T11:39:13.453Z,59.14
2023-03-23T11:40:13.443Z,56.56
2023-03-23T11:41:13.436Z,57.36
2023-03-23T11:42:13.444Z,60.59
2023-03-23T11:43:13.439Z,58.01
2023-03-23T11:44:13.414Z,59.94
2023-03-23T11:45:13.430Z,58.33
2023-03-23T11:46:13.416Z,60.42
2023-03-23T11:47:13.387Z,61.23
2023-03-23T11:48:13.397Z,58.81
2023-03-23T11:49:25.123Z,60.26
2023-03-23T11:50:14.406Z,59.62
2023-03-23T11:51:13.355Z,61.07
2023-03-23T11:52:13.348Z,59.30
2023-03-23T11:53:13.363Z,59.62
2023-03-23T11:54:13.326Z,60.75
2023-03-23T11:55:13.435Z,61.23
2023-03-23T11:56:13.331Z,60.91
2023-03-23T11:57:13.317Z,59.14
2023-03-23T11:58:13.287Z,58.33
2023-03-23T11:59:13.296Z,60.42
2023-03-23T12:00:13.280Z,60.75
2023-03-23T12:01:13.264Z,58.65
2023-03-23T12:02:17.120Z,58.49
2023-03-23T12:03:13.256Z,59.14
2023-03-23T12:04:13.237Z,62.20
2023-03-23T12:05:13.238Z,60.59
2023-03-23T12:06:13.235Z,61.71
2023-03-23T12:07:13.205Z,61.23
2023-03-23T12:08:13.206Z,62.84
2023-03-23T12:09:13.194Z,60.10
2023-03-23T12:10:14.145Z,60.75
2023-03-23T12:11:13.186Z,61.87
2023-03-23T12:12:13.176Z,62.68
2023-03-23T12:13:16.041Z,61.71
2023-03-23T12:14:14.160Z,62.36
2023-03-23T12:15:13.151Z,61.71
2023-03-23T12:16:13.153Z,61.07
2023-03-23T12:17:13.113Z,61.55
2023-03-23T12:18:13.115Z,61.87
2023-03-23T12:19:13.103Z,62.04
2023-03-23T12:20:13.114Z,61.23
2023-03-23T12:21:14.577Z,61.23
2023-03-23T12:22:13.098Z,60.59
2023-03-23T12:23:13.078Z,58.97
2023-03-23T12:24:13.069Z,61.39
2023-03-23T12:25:13.059Z,61.55
2023-03-23T12:26:13.076Z,60.75
2023-03-23T12:27:13.039Z,61.23
2023-03-23T12:28:13.064Z,61.71
2023-03-23T12:29:13.029Z,62.84
2023-03-23T12:30:13.026Z,62.04
2023-03-23T12:31:13.009Z,61.87
2023-03-23T12:32:13.011Z,60.59
2023-03-23T12:33:13.025Z,62.36
2023-03-23T12:34:13.016Z,60.59
2023-03-23T12:35:12.988Z,61.07
2023-03-23T12:36:12.982Z,60.26
2023-03-23T12:37:12.972Z,61.71
2023-03-23T12:38:12.948Z,59.14
2023-03-23T12:39:12.948Z,61.07
2023-03-23T12:40:12.937Z,59.62
2023-03-23T12:41:12.953Z,61.71
2023-03-23T12:42:12.935Z,61.07
2023-03-23T12:43:12.912Z,59.30
2023-03-23T12:44:12.905Z,60.26
2023-03-23T12:45:12.896Z,60.75
2023-03-23T12:46:12.886Z,60.26
2023-03-23T12:47:12.889Z,61.87
2023-03-23T12:48:12.872Z,62.52
2023-03-23T12:49:12.865Z,61.07
2023-03-23T12:50:12.858Z,59.30
2023-03-23T12:51:12.899Z,60.10
2023-03-23T12:52:12.843Z,62.04